This is the latest recevied weather packets stored in our database for station/object SP1BMW-13. If no packets are shown the sender has not sent any weather packets the latest 10 day(s).
| Time | Temp. | Humidity | Pressure | Rain* | Wind** | Luminosity | Snow |
|---|---|---|---|---|---|---|---|
| 1787487705 | 17.78° C | 62% | 1017.4 hPa | 0 mm | 1.34 m/s, 289° | 396 W/m² | - |
| 1787487647 | 17.78° C | 61% | 1017.3 hPa | 0 mm | 1.34 m/s, 257° | 365 W/m² | - |
| 1787487586 | 17.78° C | 61% | 1017.5 hPa | 0 mm | 0.89 m/s, 279° | 295 W/m² | - |
| 1787487525 | 17.78° C | 61% | 1017.4 hPa | 0 mm | 2.24 m/s, 225° | 268 W/m² | - |
| 1787487465 | 17.78° C | 62% | 1017.3 hPa | 0 mm | 3.13 m/s, 251° | 252 W/m² | - |
| 1787487405 | 17.78° C | 64% | 1017.6 hPa | 0 mm | 0.89 m/s, 347° | 234 W/m² | - |
| 1787487345 | 17.78° C | 65% | 1017.5 hPa | 0 mm | 0.45 m/s, 226° | 221 W/m² | - |
| 1787487285 | 17.78° C | 64% | 1017.6 hPa | 0 mm | 1.79 m/s, 243° | 214 W/m² | - |
| 1787487225 | 17.78° C | 65% | 1017.6 hPa | 0 mm | 0.89 m/s, 263° | 211 W/m² | - |
| 1787487165 | 17.78° C | 63% | 1017.4 hPa | 0 mm | 1.34 m/s, 223° | 210 W/m² | - |
| 1787487105 | 17.78° C | 63% | 1017.5 hPa | 0 mm | 1.79 m/s, 282° | 216 W/m² | - |
| 1787487045 | 17.78° C | 63% | 1017.4 hPa | 0 mm | 0.89 m/s, 189° | 228 W/m² | - |
| 1787486985 | 17.78° C | 63% | 1017.3 hPa | 0 mm | 1.34 m/s, 295° | 235 W/m² | - |
| 1787486925 | 17.78° C | 63% | 1017.4 hPa | 0 mm | 1.79 m/s, 281° | 235 W/m² | - |
| 1787486865 | 17.78° C | 62% | 1017.3 hPa | 0 mm | 1.79 m/s, 268° | 226 W/m² | - |
| 1787486805 | 17.78° C | 61% | 1017.4 hPa | 0 mm | 1.34 m/s, 222° | 204 W/m² | - |
| 1787486745 | 17.78° C | 61% | 1017.3 hPa | 0 mm | 2.24 m/s, 238° | 178 W/m² | - |
| 1787486685 | 17.78° C | 60% | 1017.2 hPa | 0 mm | 1.79 m/s, 246° | 140 W/m² | - |
| 1787486624 | 18.33° C | 59% | 1017.5 hPa | 0 mm | 1.79 m/s, 235° | 116 W/m² | - |
| 1787486564 | 18.33° C | 59% | 1017.5 hPa | 0 mm | 2.68 m/s, 233° | 120 W/m² | - |
| 1787486505 | 18.33° C | 60% | 1017.5 hPa | 0 mm | 0.89 m/s, 242° | 134 W/m² | - |
| 1787486444 | 18.33° C | 60% | 1017.3 hPa | 0 mm | 1.34 m/s, 46° | 157 W/m² | - |
| 1787486384 | 18.33° C | 60% | 1017.4 hPa | 0 mm | 1.79 m/s, 252° | 175 W/m² | - |
| 1787486324 | 18.33° C | 59% | 1017.5 hPa | 0 mm | 1.79 m/s, 308° | 192 W/m² | - |
| 1787486264 | 18.33° C | 59% | 1017.2 hPa | 0 mm | 1.34 m/s, 1° | 209 W/m² | - |
* Rain latest hour (hover to see other rain measurements)
** Current wind speed in m/s (hover to see current wind gust speed)